Terminal Aerodrome Forecast
Issued by NWS Milwaukee/Sullivan, WI

Home | Current Version | Previous Version | Text Only | Print | Product List | Glossary On
Versions: 1 2 3 4 5 6 7 8 9 10 11 12 13 14 15 16 17 18 19 20 21 22 23 24 25 26 27 28 29 30 31 32 33 34 35 36 37 38 39 40 41 42 43 44 45 46 47 48
000
FTUS43 KMKX 252332
TAFMKE
TAF
KMKE 252332Z 2600/2706 21008KT P6SM SCT040 BKN070
     FM260100 18007KT P6SM SCT030 BKN040
      TEMPO 2603/2607 BKN030
     FM260700 19007KT P6SM OVC030
     FM261500 23007KT P6SM BKN035 BKN150
     FM261900 16008KT P6SM SCT040 BKN200
     FM270300 23006KT P6SM SCT080 BKN200=

USA.gov is the U.S. government's official web portal to all federal, state and local government web resources and services.